Time;durP1;ratioP1;P1;durP2;ratioP2;P2;SDS_P1;SDS_P2;PMS_P1;PMS_P2;Temp;Humidity;BMP_temperature;BMP_pressure;BME280_temperature;BME280_humidity;BME280_pressure;Samples;Min_cycle;Max_cycle;Signal;HPM_P1;HPM_P2
2022/04/14 00:04:20;;;;;;;29.90;27.25;;;;;;;9.10;100.00;102028.84;5245463;28;20049;-59
2022/04/14 00:06:50;;;;;;;31.35;28.85;;;;;;;9.09;100.00;102019.09;5246449;28;20082;-57
2022/04/14 00:09:22;;;;;;;29.42;27.30;;;;;;;9.00;100.00;102004.22;5229459;28;20115;-59
2022/04/14 00:11:52;;;;;;;25.40;23.45;;;;;;;9.04;100.00;102017.06;5229637;28;20075;-59
2022/04/14 00:14:23;;;;;;;31.80;29.25;;;;;;;9.02;100.00;102015.63;5246878;28;20048;-58
2022/04/14 00:16:53;;;;;;;28.42;25.85;;;;;;;9.04;100.00;102017.06;5229524;28;20461;-58
2022/04/14 00:19:23;;;;;;;31.75;29.25;;;;;;;9.01;100.00;102022.06;5229458;28;20083;-59
2022/04/14 00:21:54;;;;;;;31.88;29.25;;;;;;;8.96;100.00;102022.69;5229501;28;20021;-59
2022/04/14 00:24:25;;;;;;;30.17;27.70;;;;;;;8.93;100.00;102020.47;5228743;28;20028;-57
2022/04/14 00:26:55;;;;;;;32.80;29.92;;;;;;;8.93;100.00;102019.63;5229422;28;20405;-59
2022/04/14 00:29:26;;;;;;;27.60;25.38;;;;;;;8.81;100.00;102000.63;5229310;28;20060;-59
2022/04/14 00:31:56;;;;;;;32.88;30.02;;;;;;;8.94;100.00;102016.72;5229469;28;20051;-58
2022/04/14 00:34:27;;;;;;;32.60;30.02;;;;;;;8.91;100.00;102005.56;5246668;28;20490;-58
2022/04/14 00:36:57;;;;;;;30.20;27.08;;;;;;;8.94;100.00;102016.72;5229108;28;20509;-58
2022/04/14 00:39:28;;;;;;;26.23;23.77;;;;;;;8.93;100.00;102020.47;5228761;28;20037;-58
2022/04/14 00:41:58;;;;;;;27.35;25.25;;;;;;;8.91;100.00;102022.53;5245450;28;20351;-58
2022/04/14 01:05:13;;;;;;;38.88;35.58;;;;;;;9.07;100.00;102005.03;6083763;23;20045;-81
2022/04/14 01:07:45;;;;;;;42.53;38.22;;;;;;;9.00;100.00;101993.44;5225161;28;20037;-83
2022/04/14 01:10:16;;;;;;;34.10;30.60;;;;;;;9.10;100.00;102015.38;5234799;28;20028;-83
2022/04/14 01:12:47;;;;;;;35.22;31.88;;;;;;;9.07;100.00;102011.22;5234834;28;20027;-80
2022/04/14 01:15:17;;;;;;;39.88;36.38;;;;;;;9.06;100.00;102011.44;5224653;28;20084;-78
2022/04/14 01:17:48;;;;;;;38.25;34.50;;;;;;;8.96;100.00;102005.69;5246996;28;20025;-78
2022/04/14 01:20:18;;;;;;;40.70;34.42;;;;;;;9.01;100.00;102008.56;5248744;28;20052;-81
2022/04/14 01:22:57;;;;;;;39.00;35.28;;;;;;;8.98;100.00;102006.31;5250001;28;20028;-81
2022/04/14 01:25:28;;;;;;;40.88;37.08;;;;;;;8.90;100.00;102009.28;5249792;28;20240;-79
2022/04/14 01:27:58;;;;;;;38.00;35.08;;;;;;;8.96;100.00;102006.53;5250710;28;20032;-80
2022/04/14 01:30:29;;;;;;;39.00;35.58;;;;;;;8.96;100.00;102003.00;5246284;28;20035;-82
2022/04/14 01:33:00;;;;;;;37.90;34.70;;;;;;;8.95;100.00;102014.84;5233794;28;20027;-82
2022/04/14 01:35:31;;;;;;;37.92;34.28;;;;;;;8.96;100.00;102011.09;5233303;28;20088;-82
2022/04/14 01:38:01;;;;;;;37.60;33.83;;;;;;;8.94;100.00;102013.19;5233732;28;20021;-83
2022/04/14 01:40:31;;;;;;;36.20;33.08;;;;;;;8.79;100.00;101989.25;5233483;28;20030;-83
2022/04/14 01:43:02;;;;;;;42.55;38.50;;;;;;;8.90;100.00;102006.59;5214900;28;20485;-82
2022/04/14 01:45:32;;;;;;;34.05;31.50;;;;;;;8.83;100.00;102013.88;5215421;28;20023;-81
2022/04/14 01:48:03;;;;;;;30.23;27.90;;;;;;;8.64;100.00;101984.16;5215601;28;20025;-81
2022/04/14 01:50:33;;;;;;;29.80;27.35;;;;;;;8.68;100.00;101996.13;5234463;28;20021;-83
2022/04/14 01:53:04;;;;;;;36.25;33.35;;;;;;;8.80;100.00;102015.97;5233368;28;20362;-82
2022/04/14 01:55:34;;;;;;;32.75;29.73;;;;;;;8.57;100.00;101980.69;5215962;28;20025;-82
2022/04/14 01:58:04;;;;;;;33.60;30.13;;;;;;;8.55;100.00;101988.13;5233229;28;20040;-83
2022/04/14 02:00:35;;;;;;;35.33;32.40;;;;;;;8.53;100.00;101997.47;5233254;28;20028;-83
2022/04/14 02:03:05;;;;;;;39.00;34.80;;;;;;;8.64;100.00;102021.88;5233536;28;20024;-83
2022/04/14 02:05:36;;;;;;;40.67;36.85;;;;;;;8.57;100.00;102012.97;5240793;28;20024;-82
2022/04/14 02:08:06;;;;;;;43.50;39.03;;;;;;;8.74;100.00;102030.28;5253866;28;20017;-82
2022/04/14 02:10:36;;;;;;;34.97;32.20;;;;;;;8.74;100.00;102032.16;5253716;28;20024;-82
2022/04/14 02:13:07;;;;;;;41.35;37.75;;;;;;;8.71;100.00;102030.72;5236028;28;20020;-82
2022/04/14 02:15:37;;;;;;;39.67;35.97;;;;;;;8.71;100.00;102027.19;5235823;28;20072;-82
2022/04/14 02:18:07;;;;;;;34.30;31.40;;;;;;;8.70;100.00;102031.75;5253573;28;20021;-83
2022/04/14 02:20:38;;;;;;;38.45;34.88;;;;;;;8.69;100.00;102024.72;5254366;28;20024;-83
2022/04/14 02:23:08;;;;;;;34.70;31.15;;;;;;;-141.48;100.00;69781.59;5254127;28;20480;-81
2022/04/14 02:29:05;;;;;;;33.30;30.08;;;;;;;-141.48;100.00;69781.59;5254237;28;20055;-82
2022/04/14 02:31:36;;;;;;;36.05;33.15;;;;;;;-141.48;100.00;69781.59;5253740;28;20032;-82
2022/04/14 02:34:06;;;;;;;37.00;33.58;;;;;;;-141.48;100.00;69781.59;5253277;28;20048;-82
2022/04/14 02:37:34;;;;;;;49.25;45.13;;;;;;;-141.48;100.00;69781.59;5254265;28;20103;-82
2022/04/14 02:41:03;;;;;;;50.80;45.55;;;;;;;-141.48;100.00;69781.59;5236560;28;20405;-82
2022/04/14 02:44:34;;;;;;;50.53;45.17;;;;;;;-141.48;100.00;69781.59;5254098;28;20032;-82
2022/04/14 02:48:03;;;;;;;53.83;48.00;;;;;;;-141.48;100.00;69781.59;5253481;28;20023;-82
2022/04/14 02:51:32;;;;;;;49.17;44.63;;;;;;;-141.48;100.00;69781.59;5253618;28;20047;-82
2022/04/14 02:55:01;;;;;;;55.20;49.83;;;;;;;-141.48;100.00;69781.59;5253761;28;20067;-81
2022/04/14 02:57:36;;;;;;;43.13;39.08;;;;;;;-141.48;100.00;69781.59;5254274;28;20024;-82
2022/04/14 03:00:11;;;;;;;43.72;39.67;;;;;;;-141.48;100.00;69781.59;5254357;28;20036;-81
2022/04/14 03:02:42;;;;;;;44.08;39.72;;;;;;;;;;5254098;28;20088;-82
2022/04/14 03:05:12;;;;;;;42.90;38.80;;;;;;;-141.48;100.00;69781.59;5263109;28;20071;-81
2022/04/14 03:07:42;;;;;;;41.70;37.53;;;;;;;-141.48;100.00;69781.59;5249198;28;20037;-79
2022/04/14 03:10:13;;;;;;;42.45;38.30;;;;;;;-141.48;100.00;69781.59;5251570;28;20416;-81
2022/04/14 03:12:51;;;;;;;40.08;36.03;;;;;;;-141.48;100.00;69781.59;5240049;28;20028;-81
2022/04/14 03:15:42;;;;;;;41.30;37.47;;;;;;;-141.48;100.00;69781.59;5219073;28;20021;-81
2022/04/14 03:18:12;;;;;;;43.15;38.97;;;;;;;-141.48;100.00;69781.59;5237264;28;20067;-82
2022/04/14 03:20:42;;;;;;;44.35;40.22;;;;;;;-141.48;100.00;69781.59;5236893;28;20028;-82
2022/04/14 03:24:02;;;;;;;38.67;34.95;;;;;;;-141.48;100.00;69781.59;5235976;28;20021;-80
2022/04/14 03:26:33;;;;;;;56.53;43.78;;;;;;;-141.48;100.00;69781.59;5236562;28;20036;-82
2022/04/14 03:29:03;;;;;;;43.65;39.15;;;;;;;-141.48;100.00;69781.59;5236011;28;20396;-83
2022/04/14 03:31:33;;;;;;;127.82;50.35;;;;;;;-141.48;100.00;69781.59;5237089;28;20032;-82
2022/04/14 03:34:04;;;;;;;73.53;43.47;;;;;;;-141.48;100.00;69781.59;5218812;28;20028;-82
2022/04/14 03:37:09;;;;;;;56.45;45.05;;;;;;;-141.48;100.00;69781.59;5235541;28;20507;-82
2022/04/14 03:39:45;;;;;;;50.78;42.97;;;;;;;-141.48;100.00;69781.59;5236422;28;20080;-81
2022/04/14 03:42:15;;;;;;;46.78;41.90;;;;;;;8.69;100.00;102024.72;5236726;28;20493;-82
2022/04/14 03:44:46;;;;;;;53.30;44.22;;;;;;;-141.48;100.00;69781.59;5235850;28;20032;-83
2022/04/14 03:47:16;;;;;;;45.95;41.30;;;;;;;-141.48;100.00;79534.38;5237395;28;20024;-82
2022/04/14 03:49:46;;;;;;;43.83;38.45;;;;;;;-141.48;100.00;69781.59;5244984;28;20021;-80
2022/04/14 03:52:17;;;;;;;54.30;40.92;;;;;;;-141.48;100.00;69781.59;5253005;28;20077;-79
2022/04/14 03:54:48;;;;;;;66.45;43.17;;;;;;;-141.48;100.00;69781.59;5235983;28;20037;-79
2022/04/14 03:57:18;;;;;;;112.88;45.03;;;;;;;-141.48;100.00;69781.59;5252583;28;20043;-80
2022/04/14 03:59:49;;;;;;;59.75;43.58;;;;;;;-141.48;100.00;69781.59;5242146;28;20029;-83
2022/04/14 04:02:19;;;;;;;41.65;37.40;;;;;;;-141.48;100.00;69781.59;5235738;28;20021;-82
2022/04/14 04:04:49;;;;;;;61.47;38.80;;;;;;;-141.48;100.00;69781.59;5237060;28;20297;-83
2022/04/14 04:07:20;;;;;;;82.68;40.25;;;;;;;-141.48;100.00;69781.59;5256283;28;20039;-83
2022/04/14 04:09:50;;;;;;;47.25;38.70;;;;;;;-141.48;100.00;69781.59;5256047;28;20063;-83
2022/04/14 04:12:21;;;;;;;59.53;40.33;;;;;;;-141.48;100.00;69781.59;5256089;28;20020;-82
2022/04/14 04:14:52;;;;;;;56.20;35.20;;;;;;;-141.48;100.00;69781.59;5253965;22;20518;-82
2022/04/14 04:17:22;;;;;;;39.97;33.35;;;;;;;-141.48;100.00;69781.59;5215362;28;20100;-85
2022/04/14 04:19:53;;;;;;;63.17;40.58;;;;;;;-141.48;100.00;69781.59;5196085;28;20029;-85
2022/04/14 04:22:23;;;;;;;54.95;38.40;;;;;;;-141.48;100.00;69781.59;5194141;28;20021;-85
2022/04/14 04:24:54;;;;;;;43.97;37.60;;;;;;;-141.48;100.00;69781.59;5214694;28;20366;-84
2022/04/14 04:27:24;;;;;;;44.40;35.42;;;;;;;-141.48;100.00;69781.59;5217320;23;20041;-80
2022/04/14 04:29:54;;;;;;;39.25;36.20;;;;;;;-141.48;100.00;69781.59;5186425;28;20041;-79
2022/04/14 04:32:25;;;;;;;48.45;37.78;;;;;;;-141.48;100.00;69781.59;5186759;28;20041;-79
2022/04/14 04:34:55;;;;;;;41.50;34.15;;;;;;;-141.48;100.00;69781.59;5197583;28;20492;-79
2022/04/14 04:37:26;;;;;;;47.28;33.30;;;;;;;-141.48;100.00;69781.59;5190393;28;20488;-79
2022/04/14 04:39:56;;;;;;;36.63;32.30;;;;;;;-141.48;100.00;69781.59;5207863;28;20472;-80
2022/04/14 04:42:27;;;;;;;45.25;30.77;;;;;;;-141.48;100.00;69781.59;5206971;28;20608;-78
2022/04/14 04:44:57;;;;;;;43.22;30.05;;;;;;;-141.48;100.00;69781.59;5206515;28;20071;-79
2022/04/14 04:47:27;;;;;;;85.05;31.83;;;;;;;-141.48;100.00;69781.59;5189123;28;20033;-79
2022/04/14 04:50:00;;;;;;;39.50;31.35;;;;;;;-141.48;100.00;69781.59;5195651;28;20315;-79
2022/04/14 04:52:30;;;;;;;46.80;27.92;;;;;;;-141.48;100.00;69781.59;5197032;28;20095;-80
2022/04/14 04:55:01;;;;;;;34.25;30.77;;;;;;;-141.48;100.00;69781.59;5213952;28;20013;-77
2022/04/14 04:57:31;;;;;;;46.90;33.92;;;;;;;-141.48;100.00;69781.59;5220377;28;20088;-80
2022/04/14 05:00:02;;;;;;;42.85;33.50;;;;;;;-141.48;100.00;69781.59;5212403;28;20489;-80
2022/04/14 05:02:34;;;;;;;41.55;31.83;;;;;;;-141.48;100.00;69781.59;5207933;28;20052;-79
2022/04/14 05:05:05;;;;;;;36.00;31.38;;;;;;;-141.48;100.00;69781.59;5207352;28;20061;-80
2022/04/14 05:07:35;;;;;;;36.65;31.80;;;;;;;-141.48;100.00;69781.59;5189955;28;20033;-78
2022/04/14 05:10:06;;;;;;;48.55;29.08;;;;;;;-141.48;100.00;69781.59;5207199;28;20104;-82
2022/04/14 05:12:37;;;;;;;33.80;30.50;;;;;;;-141.48;100.00;69781.59;5190644;28;20072;-79
2022/04/14 05:15:08;;;;;;;44.50;29.75;;;;;;;-141.48;100.00;69781.59;5170813;28;20014;-78
2022/04/14 05:17:38;;;;;;;39.90;29.48;;;;;;;-141.48;100.00;69781.59;5187626;28;20036;-80
2022/04/14 05:20:09;;;;;;;29.50;26.17;;;;;;;-141.48;100.00;69781.59;5187169;28;20018;-79
2022/04/14 05:22:39;;;;;;;42.17;33.03;;;;;;;-141.48;100.00;69781.59;5188262;28;20057;-80
2022/04/14 05:25:10;;;;;;;54.38;30.35;;;;;;;-141.48;100.00;69781.59;5187067;28;20014;-80
2022/04/14 05:27:42;;;;;;;55.75;28.73;;;;;;;-141.48;100.00;69781.59;5206559;28;20048;-81
2022/04/14 05:30:14;;;;;;;41.40;27.52;;;;;;;-141.48;100.00;69781.59;5221971;28;20031;-80
2022/04/14 05:32:45;;;;;;;56.85;30.88;;;;;;;-141.48;100.00;69781.59;5222431;28;20642;-80
2022/04/14 05:35:15;;;;;;;30.63;27.55;;;;;;;-141.48;100.00;69781.59;5222258;23;20049;-57
2022/04/14 05:37:45;;;;;;;28.67;26.35;;;;;;;-141.48;100.00;69781.59;5186788;28;20033;-57
2022/04/14 05:40:17;;;;;;;72.38;30.35;;;;;;;-141.48;100.00;69781.59;5186444;28;20025;-57
2022/04/14 05:42:48;;;;;;;33.30;28.90;;;;;;;-141.48;100.00;69781.59;5186775;28;20029;-55
2022/04/14 05:45:19;;;;;;;71.50;66.47;;;;;;;-141.48;100.00;69781.59;5183957;28;20116;-58
2022/04/14 05:47:49;;;;;;;48.47;39.45;;;;;;;-141.48;100.00;69781.59;5202924;28;20036;-55
2022/04/14 05:50:20;;;;;;;35.50;32.35;;;;;;;-141.48;100.00;69781.59;5203439;28;20116;-58
2022/04/14 05:52:51;;;;;;;33.05;30.25;;;;;;;-141.48;100.00;69781.59;5203351;28;20033;-57
2022/04/14 05:55:21;;;;;;;43.30;31.27;;;;;;;-141.48;100.00;69781.59;5203517;28;20029;-56
2022/04/14 05:57:52;;;;;;;35.67;32.88;;;;;;;-141.48;100.00;69781.59;5201747;28;20116;-56
2022/04/14 06:00:22;;;;;;;31.23;28.77;;;;;;;-141.48;100.00;69781.59;5203513;28;20450;-56
2022/04/14 06:02:52;;;;;;;30.27;28.08;;;;;;;-141.48;100.00;69781.59;5203381;28;20037;-57
2022/04/14 06:05:25;;;;;;;32.33;29.70;;;;;;;-141.48;100.00;69781.59;5204390;28;20450;-56
2022/04/14 06:07:56;;;;;;;38.40;34.22;;;;;;;-141.48;100.00;69781.59;5203428;28;20116;-57
2022/04/14 06:10:27;;;;;;;41.08;34.70;;;;;;;-141.48;100.00;69781.59;5203421;28;20030;-54
2022/04/14 06:12:58;;;;;;;41.63;38.20;;;;;;;-141.48;100.00;69781.59;5203448;28;20056;-54
2022/04/14 06:15:30;;;;;;;41.17;37.13;;;;;;;-141.48;100.00;69781.59;5203111;28;20057;-56
2022/04/14 06:18:00;;;;;;;37.65;33.97;;;;;;;-141.48;100.00;69781.59;5203348;28;20108;-57
2022/04/14 06:20:31;;;;;;;40.25;36.90;;;;;;;-141.48;100.00;69781.59;5203838;28;20021;-53
2022/04/14 06:23:02;;;;;;;55.65;37.65;;;;;;;-141.48;100.00;69781.59;5204242;28;20032;-63
2022/04/14 06:25:36;;;;;;;83.25;42.45;;;;;;;-141.48;100.00;69781.59;5204065;28;20022;-58
2022/04/14 06:28:07;;;;;;;39.15;35.85;;;;;;;-141.48;100.00;69781.59;5203269;28;20132;-60
2022/04/14 06:30:38;;;;;;;44.72;39.45;;;;;;;-141.48;100.00;69781.59;5203314;28;20030;-56
2022/04/14 06:33:09;;;;;;;40.97;37.22;;;;;;;-141.48;100.00;69781.59;5203082;28;20052;-58
2022/04/14 06:35:39;;;;;;;60.45;41.42;;;;;;;-141.48;100.00;69781.59;5202765;28;20053;-58
2022/04/14 06:38:10;;;;;;;44.20;39.40;;;;;;;-141.48;100.00;69781.59;5203120;28;20399;-57
2022/04/14 06:40:41;;;;;;;47.17;42.83;;;;;;;-141.48;100.00;69781.59;5203127;28;20108;-57
2022/04/14 06:43:11;;;;;;;43.58;39.60;;;;;;;-141.48;100.00;69781.59;5202863;28;20079;-60
2022/04/14 06:45:41;;;;;;;44.03;40.42;;;;;;;-141.48;100.00;69781.59;5205559;28;20083;-58
2022/04/14 06:48:12;;;;;;;39.88;36.65;;;;;;;-141.48;100.00;69781.59;5207027;28;20029;-59
2022/04/14 06:50:43;;;;;;;38.78;35.53;;;;;;;-141.48;100.00;69781.59;5207054;28;20116;-57
2022/04/14 06:53:15;;;;;;;42.05;38.40;;;;;;;-141.48;100.00;69781.59;5207015;28;20021;-57
2022/04/14 06:55:48;;;;;;;40.75;36.95;;;;;;;-141.48;100.00;69781.59;5206941;28;20052;-57
2022/04/14 06:58:18;;;;;;;44.05;39.65;;;;;;;-141.48;100.00;69781.59;5207019;28;20411;-58
2022/04/14 07:00:48;;;;;;;43.75;39.72;;;;;;;-141.48;100.00;69781.59;5206745;28;20021;-57
2022/04/14 07:03:26;;;;;;;42.78;38.95;;;;;;;-141.48;100.00;69781.59;5206499;28;20116;-58
2022/04/14 07:05:56;;;;;;;44.42;40.08;;;;;;;-141.48;100.00;69781.59;5206705;28;20057;-59
2022/04/14 07:08:27;;;;;;;43.97;40.20;;;;;;;-141.48;100.00;69781.59;5206736;28;20060;-59
2022/04/14 07:10:59;;;;;;;41.38;37.47;;;;;;;-141.48;100.00;69781.59;5206581;28;20036;-57
2022/04/14 07:13:29;;;;;;;43.05;39.25;;;;;;;-141.48;100.00;69781.59;5206217;28;20117;-57
2022/04/14 07:16:00;;;;;;;43.95;39.90;;;;;;;-141.48;100.00;69781.59;5206465;28;20034;-56
2022/04/14 07:18:30;;;;;;;39.63;36.22;;;;;;;-141.48;100.00;69781.59;5206320;28;20068;-56
2022/04/14 07:21:01;;;;;;;43.78;39.63;;;;;;;-141.48;100.00;69781.59;5207779;28;20033;-56
2022/04/14 07:23:31;;;;;;;44.50;40.50;;;;;;;-141.48;100.00;69781.59;5206325;28;20045;-57
2022/04/14 07:26:02;;;;;;;41.58;37.88;;;;;;;-141.48;100.00;69781.59;5207903;28;20029;-57
2022/04/14 07:28:33;;;;;;;41.35;37.67;;;;;;;-141.48;100.00;69781.59;5208031;28;20021;-56
2022/04/14 07:31:03;;;;;;;40.35;36.92;;;;;;;-141.48;100.00;69781.59;5206162;28;20026;-55
2022/04/14 07:33:34;;;;;;;39.97;36.05;;;;;;;-141.48;100.00;69781.59;5206768;28;20029;-60
2022/04/14 07:36:05;;;;;;;37.45;34.17;;;;;;;-141.48;100.00;69781.59;5227071;28;20083;-58
2022/04/14 07:38:35;;;;;;;35.22;32.53;;;;;;;-141.48;100.00;69781.59;5227330;28;20035;-56
2022/04/14 07:41:05;;;;;;;39.25;35.17;;;;;;;-141.48;100.00;69781.59;5226669;28;20435;-56
2022/04/14 07:43:36;;;;;;;282.27;104.13;;;;;;;-141.48;100.00;69781.59;5226111;28;20128;-56
2022/04/14 07:46:06;;;;;;;44.08;31.98;;;;;;;-141.48;100.00;69781.59;5226712;28;20434;-57
2022/04/14 07:48:37;;;;;;;36.42;32.67;;;;;;;-141.48;100.00;69781.59;5226625;28;20032;-57
2022/04/14 07:51:08;;;;;;;31.58;28.33;;;;;;;-141.48;100.00;69781.59;5226503;28;20016;-56
2022/04/14 07:53:38;;;;;;;39.08;28.50;;;;;;;-141.48;100.00;69781.59;5226360;28;20032;-57
2022/04/14 07:56:09;;;;;;;32.95;24.42;;;;;;;-141.48;100.00;69781.59;5226294;28;20192;-58
2022/04/14 07:58:39;;;;;;;31.65;28.67;;;;;;;-141.48;100.00;69781.59;5226439;28;20040;-55
2022/04/14 08:01:10;;;;;;;26.15;23.77;;;;;;;-141.48;100.00;69781.59;5226773;28;20485;-58
2022/04/14 08:03:40;;;;;;;28.02;25.63;;;;;;;-141.48;100.00;69781.59;5227457;28;20029;-55
2022/04/14 08:06:10;;;;;;;422.85;162.68;;;;;;;-141.48;100.00;69781.59;5226234;28;20391;-55
2022/04/14 08:08:41;;;;;;;32.47;29.08;;;;;;;-141.48;100.00;69781.59;5209907;28;20048;-55
2022/04/14 08:11:11;;;;;;;26.48;24.50;;;;;;;-141.48;100.00;69781.59;5226163;28;20036;-57
2022/04/14 08:13:42;;;;;;;26.67;24.42;;;;;;;-141.48;100.00;69781.59;5225973;28;20031;-56
2022/04/14 08:16:12;;;;;;;26.95;24.60;;;;;;;-141.48;100.00;69781.59;5226419;28;20025;-57
2022/04/14 08:18:43;;;;;;;27.02;21.95;;;;;;;-141.48;100.00;69781.59;5226036;28;20509;-59
2022/04/14 08:21:13;;;;;;;37.25;23.52;;;;;;;-141.48;100.00;69781.59;5226105;28;20023;-60
2022/04/14 08:23:44;;;;;;;19.23;17.45;;;;;;;-141.48;100.00;69781.59;5225865;28;20414;-58
2022/04/14 08:26:15;;;;;;;15.57;13.82;;;;;;;-141.48;100.00;69781.59;5212795;28;20025;-57
2022/04/14 08:28:46;;;;;;;14.63;13.55;;;;;;;-141.48;100.00;69781.59;5204911;28;20089;-57
2022/04/14 08:31:17;;;;;;;14.13;12.35;;;;;;;-141.48;100.00;69781.59;5204989;28;20140;-59
2022/04/14 08:33:51;;;;;;;21.50;13.65;;;;;;;-141.48;100.00;69781.59;5205037;28;20451;-59
2022/04/14 08:36:22;;;;;;;14.27;13.05;;;;;;;-141.48;100.00;69781.59;5205219;28;20037;-60
2022/04/14 08:38:53;;;;;;;15.13;13.50;;;;;;;-141.48;100.00;69781.59;5205385;28;20017;-59
2022/04/14 08:41:29;;;;;;;14.45;13.15;;;;;;;-141.48;100.00;69781.59;5205112;28;20053;-59
2022/04/14 08:44:05;;;;;;;14.40;13.18;;;;;;;-141.48;100.00;69781.59;5205795;28;20521;-57
2022/04/14 08:46:36;;;;;;;14.50;13.00;;;;;;;-141.48;100.00;69781.59;5204814;28;20526;-57
2022/04/14 08:49:09;;;;;;;12.10;9.38;;;;;;;-141.48;100.00;69781.59;5205032;28;20022;-57
2022/04/14 08:51:40;;;;;;;12.45;11.40;;;;;;;-141.48;100.00;69781.59;5204908;28;20033;-57
2022/04/14 08:54:13;;;;;;;7.07;6.60;;;;;;;-141.48;100.00;69781.59;5204218;28;20028;-58
2022/04/14 08:56:46;;;;;;;6.82;6.13;;;;;;;-141.48;100.00;69781.59;5204711;28;20037;-57
2022/04/14 08:59:18;;;;;;;11.85;9.50;;;;;;;-141.48;100.00;69781.59;5204775;28;20444;-58
2022/04/14 09:01:49;;;;;;;11.60;9.18;;;;;;;-141.48;100.00;69781.59;5204509;28;20108;-58
2022/04/14 09:04:19;;;;;;;8.55;7.85;;;;;;;-141.48;100.00;69781.59;5204216;28;20467;-58
2022/04/14 09:06:50;;;;;;;12.10;10.90;;;;;;;-141.48;100.00;69781.59;5203590;28;20425;-58
2022/04/14 09:09:23;;;;;;;11.38;10.57;;;;;;;-141.48;100.00;69781.59;5204205;28;20084;-58
2022/04/14 09:11:54;;;;;;;14.82;8.45;;;;;;;-141.48;100.00;69781.59;5204202;28;20064;-58
2022/04/14 09:14:24;;;;;;;7.75;7.13;;;;;;;-141.48;100.00;69781.59;5204086;28;20452;-58
2022/04/14 09:16:55;;;;;;;8.05;7.22;;;;;;;-141.48;100.00;69781.59;5204148;28;20354;-58
2022/04/14 09:19:34;;;;;;;8.88;8.07;;;;;;;-141.48;100.00;69781.59;5204484;28;20120;-57
2022/04/14 09:22:09;;;;;;;8.77;8.13;;;;;;;-141.48;100.00;69781.59;5204664;28;20115;-57
2022/04/14 09:24:52;;;;;;;9.43;8.45;;;;;;;-141.48;100.00;69781.59;5214187;23;20056;-93
2022/04/14 09:27:27;;;;;;;8.65;7.82;;;;;;;-141.48;100.00;69781.59;5163227;28;20050;-92
2022/04/14 09:30:04;;;;;;;8.55;7.90;;;;;;;-141.48;100.00;69781.59;5134616;28;20397;-91
2022/04/14 09:32:45;;;;;;;8.18;7.57;;;;;;;-141.48;100.00;69781.59;5136606;28;20054;-92
2022/04/14 09:35:20;;;;;;;7.90;7.20;;;;;;;-141.48;100.00;69781.59;5154020;28;20015;-93
2022/04/14 09:38:07;;;;;;;11.18;9.75;;;;;;;-141.48;100.00;69781.59;5141107;28;20106;-93
2022/04/14 09:40:37;;;;;;;10.27;9.18;;;;;;;-141.48;100.00;69781.59;5142546;28;20582;-92
2022/04/14 09:43:08;;;;;;;8.18;7.40;;;;;;;-141.48;100.00;69781.59;5162932;28;20023;-92
2022/04/14 09:45:46;;;;;;;7.57;7.03;;;;;;;-141.48;100.00;69781.59;5144639;28;20133;-93
2022/04/14 09:48:18;;;;;;;7.20;6.45;;;;;;;-141.48;100.00;69781.59;5162079;28;20050;-93
2022/04/14 09:50:48;;;;;;;9.77;8.57;;;;;;;-141.48;100.00;69781.59;5163099;28;20061;-93
2022/04/14 09:53:19;;;;;;;8.02;7.30;;;;;;;-141.48;100.00;69781.59;5165537;28;20031;-92
2022/04/14 09:55:49;;;;;;;10.82;7.18;;;;;;;-141.48;100.00;69781.59;5141052;28;20046;-92
2022/04/14 09:58:22;;;;;;;8.18;7.38;;;;;;;-141.48;100.00;69781.59;5160017;28;20153;-92
2022/04/14 10:00:57;;;;;;;10.00;7.57;;;;;;;-141.48;100.00;69781.59;5159873;28;20093;-92
2022/04/14 10:03:30;;;;;;;8.45;7.72;;;;;;;-141.48;100.00;69781.59;5158221;28;20055;-92
2022/04/14 10:06:06;;;;;;;8.55;7.53;;;;;;;-141.48;100.00;69781.59;5159234;28;20023;-92
2022/04/14 10:09:03;;;;;;;7.68;6.78;;;;;;;-141.48;100.00;69781.59;5163455;28;20022;-93
2022/04/14 10:11:37;;;;;;;7.18;6.47;;;;;;;-141.48;100.00;69781.59;5141232;28;20078;-91
2022/04/14 10:14:18;;;;;;;7.30;6.80;;;;;;;-141.48;100.00;69781.59;5163110;28;20026;-91
2022/04/14 10:16:50;;;;;;;6.35;5.85;;;;;;;-141.48;100.00;69781.59;5150970;28;20422;-93
2022/04/14 10:19:21;;;;;;;6.20;5.70;;;;;;;-141.48;100.00;69781.59;5169752;28;20050;-94
2022/04/14 10:21:53;;;;;;;8.60;7.32;;;;;;;-141.48;100.00;69781.59;5172766;28;20023;-92
2022/04/14 10:24:25;;;;;;;11.98;6.72;;;;;;;-141.48;100.00;69781.59;5176422;28;20031;-92
2022/04/14 10:26:57;;;;;;;6.50;6.10;;;;;;;-141.48;100.00;69781.59;5201208;23;20028;-65
2022/04/14 10:29:29;;;;;;;8.80;7.93;;;;;;;-141.48;100.00;69781.59;5215983;28;20088;-65
2022/04/14 10:32:01;;;;;;;8.93;7.15;;;;;;;-141.48;100.00;69781.59;5207703;28;20033;-66
2022/04/14 10:34:33;;;;;;;9.30;8.48;;;;;;;-141.48;100.00;69781.59;5211743;28;20017;-66
2022/04/14 10:37:10;;;;;;;10.10;9.05;;;;;;;-141.48;100.00;69781.59;5228510;28;20390;-65
2022/04/14 10:39:46;;;;;;;8.55;7.75;;;;;;;-141.48;100.00;69781.59;5229315;28;20066;-65
2022/04/14 10:42:23;;;;;;;9.02;8.05;;;;;;;-141.48;100.00;69781.59;5211805;28;20033;-66
2022/04/14 10:44:55;;;;;;;9.25;8.32;;;;;;;-141.48;100.00;69781.59;5211627;28;20084;-64
2022/04/14 10:47:33;;;;;;;9.40;7.40;;;;;;;-141.48;100.00;69781.59;5211809;28;20029;-66
2022/04/14 10:50:04;;;;;;;9.20;8.38;;;;;;;-141.48;100.00;69781.59;5211557;28;20033;-64
2022/04/14 10:52:34;;;;;;;9.85;8.77;;;;;;;-141.48;100.00;69781.59;5211697;28;20466;-65
2022/04/14 10:55:06;;;;;;;9.10;8.43;;;;;;;-141.48;100.00;69781.59;5229206;28;20048;-65
2022/04/14 10:57:42;;;;;;;10.63;9.65;;;;;;;-141.48;100.00;69781.59;5211797;28;20452;-65
2022/04/14 11:00:18;;;;;;;12.30;11.40;;;;;;;-141.48;100.00;69781.59;5211513;28;20024;-64
2022/04/14 11:03:09;;;;;;;12.20;8.90;;;;;;;-141.48;100.00;69781.59;5211571;28;20025;-65
2022/04/14 11:05:50;;;;;;;8.77;8.07;;;;;;;-141.48;100.00;69781.59;5211474;28;20029;-65
2022/04/14 11:08:31;;;;;;;9.27;8.50;;;;;;;-141.48;100.00;69781.59;5228337;28;20063;-65
2022/04/14 11:11:12;;;;;;;10.68;7.57;;;;;;;-141.48;100.00;69781.59;5211441;28;20033;-65
2022/04/14 11:13:52;;;;;;;8.90;8.23;;;;;;;-141.48;100.00;69781.59;5211524;28;20025;-65
2022/04/14 11:16:42;;;;;;;9.50;7.65;;;;;;;-141.48;100.00;69781.59;5211343;28;20028;-65
2022/04/14 11:19:18;;;;;;;11.70;7.13;;;;;;;-141.48;100.00;69781.59;5211216;28;20103;-64
2022/04/14 11:22:08;;;;;;;13.77;9.13;;;;;;;-141.48;100.00;69781.59;5229173;28;20086;-65
2022/04/14 11:24:42;;;;;;;;;;;;;;;-141.48;100.00;69781.59;5211418;28;20029;-65
2022/04/14 11:27:16;;;;;;;9.48;8.57;;;;;;;-141.48;100.00;69781.59;5211085;28;19913;-65
2022/04/14 11:29:51;;;;;;;9.27;8.68;;;;;;;-141.48;100.00;69781.59;5210271;28;20029;-67
2022/04/14 11:32:36;;;;;;;9.07;7.97;;;;;;;-141.48;100.00;69781.59;5227582;28;20032;-65
2022/04/14 11:35:08;;;;;;;9.60;8.70;;;;;;;-141.48;100.00;69781.59;5228498;28;20017;-65
2022/04/14 11:37:41;;;;;;;11.95;10.25;;;;;;;-141.48;100.00;69781.59;5194665;28;20056;-65
2022/04/14 11:40:22;;;;;;;10.88;9.80;;;;;;;-141.48;100.00;69781.59;5210473;28;20048;-66
2022/04/14 11:42:55;;;;;;;7.20;6.72;;;;;;;-141.48;100.00;69781.59;5210875;28;20052;-66
2022/04/14 11:45:28;;;;;;;11.30;10.20;;;;;;;-141.48;100.00;69781.59;5210852;28;20572;-66
2022/04/14 11:48:03;;;;;;;16.50;8.80;;;;;;;-141.48;100.00;69781.59;5227517;28;20036;-65
2022/04/14 11:50:34;;;;;;;9.38;8.55;;;;;;;-141.48;100.00;69781.59;5210861;28;20085;-65
2022/04/14 11:53:04;;;;;;;10.73;9.90;;;;;;;-141.48;100.00;69781.59;5210501;28;20056;-65
2022/04/14 11:55:40;;;;;;;9.13;8.32;;;;;;;-141.48;100.00;69781.59;5210253;28;20017;-65